sensor_id;sensor_type;location;lat;lon;timestamp;P1;durP1;ratioP1;P2;durP2;ratioP2
9934;SDS011;5006;41.828;23.478;2022-12-18T12:55:17;7.60;;;6.90;;
9934;SDS011;5006;41.828;23.478;2022-12-18T12:56:30;8.75;;;6.70;;
9934;SDS011;5006;41.828;23.478;2022-12-18T12:57:46;6.53;;;5.82;;
9934;SDS011;5006;41.828;23.478;2022-12-18T12:59:01;7.95;;;6.45;;
9934;SDS011;5006;41.828;23.478;2022-12-18T13:00:16;7.15;;;5.97;;
9934;SDS011;5006;41.828;23.478;2022-12-18T13:01:25;7.53;;;6.22;;
9934;SDS011;5006;41.828;23.478;2022-12-18T13:02:39;6.05;;;5.38;;
9934;SDS011;5006;41.828;23.478;2022-12-18T13:03:56;6.78;;;5.50;;
9934;SDS011;5006;41.828;23.478;2022-12-18T13:05:11;6.28;;;5.43;;
9934;SDS011;5006;41.828;23.478;2022-12-18T13:06:28;8.13;;;5.75;;
9934;SDS011;5006;41.828;23.478;2022-12-18T13:07:45;6.93;;;5.47;;
9934;SDS011;5006;41.828;23.478;2022-12-18T13:08:56;6.20;;;5.22;;
9934;SDS011;5006;41.828;23.478;2022-12-18T13:10:13;8.00;;;5.78;;
9934;SDS011;5006;41.828;23.478;2022-12-18T13:11:30;6.13;;;5.00;;
9934;SDS011;5006;41.828;23.478;2022-12-18T13:13:02;7.00;;;5.53;;
9934;SDS011;5006;41.828;23.478;2022-12-18T13:14:17;8.52;;;5.70;;
9934;SDS011;5006;41.828;23.478;2022-12-18T13:15:30;7.60;;;5.70;;
9934;SDS011;5006;41.828;23.478;2022-12-18T13:16:38;8.88;;;5.70;;
9934;SDS011;5006;41.828;23.478;2022-12-18T13:17:43;6.55;;;5.55;;
9934;SDS011;5006;41.828;23.478;2022-12-18T13:18:50;7.88;;;5.75;;
9934;SDS011;5006;41.828;23.478;2022-12-18T13:20:04;5.97;;;5.00;;
9934;SDS011;5006;41.828;23.478;2022-12-18T13:21:13;7.00;;;5.70;;
9934;SDS011;5006;41.828;23.478;2022-12-18T13:22:28;7.35;;;5.25;;
9934;SDS011;5006;41.828;23.478;2022-12-18T13:23:36;7.07;;;5.43;;
9934;SDS011;5006;41.828;23.478;2022-12-18T13:24:42;6.38;;;5.60;;
9934;SDS011;5006;41.828;23.478;2022-12-18T13:25:48;5.75;;;5.13;;
9934;SDS011;5006;41.828;23.478;2022-12-18T13:26:54;6.05;;;5.28;;
9934;SDS011;5006;41.828;23.478;2022-12-18T13:28:01;5.90;;;5.22;;
9934;SDS011;5006;41.828;23.478;2022-12-18T13:29:09;7.10;;;5.55;;
9934;SDS011;5006;41.828;23.478;2022-12-18T13:31:59;7.38;;;5.78;;
9934;SDS011;5006;41.828;23.478;2022-12-18T13:36:43;6.93;;;5.28;;
9934;SDS011;5006;41.828;23.478;2022-12-18T13:37:52;7.10;;;5.78;;
9934;SDS011;5006;41.828;23.478;2022-12-18T13:44:10;6.75;;;6.05;;
9934;SDS011;5006;41.828;23.478;2022-12-18T13:46:44;6.30;;;5.40;;
9934;SDS011;5006;41.828;23.478;2022-12-18T13:47:55;8.25;;;6.20;;
9934;SDS011;5006;41.828;23.478;2022-12-18T13:49:02;5.80;;;5.15;;
9934;SDS011;5006;41.828;23.478;2022-12-18T13:50:17;7.68;;;5.90;;
9934;SDS011;5006;41.828;23.478;2022-12-18T13:51:28;6.95;;;6.22;;
9934;SDS011;5006;41.828;23.478;2022-12-18T13:52:37;6.47;;;5.78;;
9934;SDS011;5006;41.828;23.478;2022-12-18T13:53:48;6.85;;;6.13;;
9934;SDS011;5006;41.828;23.478;2022-12-18T13:54:57;8.10;;;6.20;;
9934;SDS011;5006;41.828;23.478;2022-12-18T13:56:08;7.28;;;6.40;;
9934;SDS011;5006;41.828;23.478;2022-12-18T13:57:25;7.97;;;5.95;;
9934;SDS011;5006;41.828;23.478;2022-12-18T13:58:32;7.25;;;6.35;;
9934;SDS011;5006;41.828;23.478;2022-12-18T13:59:38;6.50;;;5.82;;
9934;SDS011;5006;41.828;23.478;2022-12-18T14:00:45;6.97;;;6.28;;
9934;SDS011;5006;41.828;23.478;2022-12-18T14:01:51;6.90;;;6.20;;
9934;SDS011;5006;41.828;23.478;2022-12-18T14:02:59;6.38;;;5.63;;
9934;SDS011;5006;41.828;23.478;2022-12-18T14:04:08;8.00;;;6.38;;
9934;SDS011;5006;41.828;23.478;2022-12-18T14:05:21;6.32;;;5.72;;
9934;SDS011;5006;41.828;23.478;2022-12-18T14:06:27;6.35;;;5.75;;
9934;SDS011;5006;41.828;23.478;2022-12-18T14:07:32;7.45;;;5.95;;
9934;SDS011;5006;41.828;23.478;2022-12-18T14:08:38;6.40;;;5.80;;
9934;SDS011;5006;41.828;23.478;2022-12-18T14:09:46;6.57;;;5.88;;
9934;SDS011;5006;41.828;23.478;2022-12-18T14:10:54;7.97;;;6.55;;
9934;SDS011;5006;41.828;23.478;2022-12-18T14:12:02;6.93;;;6.07;;
9934;SDS011;5006;41.828;23.478;2022-12-18T14:13:27;7.10;;;6.40;;
9934;SDS011;5006;41.828;23.478;2022-12-18T14:14:41;6.85;;;6.15;;
9934;SDS011;5006;41.828;23.478;2022-12-18T14:15:51;7.95;;;6.15;;
9934;SDS011;5006;41.828;23.478;2022-12-18T14:17:07;7.15;;;5.85;;
9934;SDS011;5006;41.828;23.478;2022-12-18T14:18:16;6.30;;;5.70;;
9934;SDS011;5006;41.828;23.478;2022-12-18T14:19:26;6.50;;;5.90;;
9934;SDS011;5006;41.828;23.478;2022-12-18T14:20:33;6.30;;;5.70;;
9934;SDS011;5006;41.828;23.478;2022-12-18T14:21:39;6.82;;;6.10;;
9934;SDS011;5006;41.828;23.478;2022-12-18T14:22:46;6.43;;;5.80;;
9934;SDS011;5006;41.828;23.478;2022-12-18T14:24:03;7.80;;;6.28;;
9934;SDS011;5006;41.828;23.478;2022-12-18T14:25:18;8.30;;;6.35;;
9934;SDS011;5006;41.828;23.478;2022-12-18T14:26:25;7.00;;;6.15;;
9934;SDS011;5006;41.828;23.478;2022-12-18T14:27:37;7.43;;;6.70;;
9934;SDS011;5006;41.828;23.478;2022-12-18T14:28:47;7.15;;;6.22;;
9934;SDS011;5006;41.828;23.478;2022-12-18T14:29:53;6.88;;;6.15;;
9934;SDS011;5006;41.828;23.478;2022-12-18T14:30:59;7.45;;;6.63;;
9934;SDS011;5006;41.828;23.478;2022-12-18T14:32:05;6.70;;;6.10;;
9934;SDS011;5006;41.828;23.478;2022-12-18T14:33:13;7.38;;;6.55;;
9934;SDS011;5006;41.828;23.478;2022-12-18T14:34:20;7.55;;;6.78;;
9934;SDS011;5006;41.828;23.478;2022-12-18T14:35:30;7.35;;;6.53;;
9934;SDS011;5006;41.828;23.478;2022-12-18T14:36:36;8.10;;;5.75;;
9934;SDS011;5006;41.828;23.478;2022-12-18T14:37:44;7.40;;;6.60;;
9934;SDS011;5006;41.828;23.478;2022-12-18T14:38:50;7.60;;;6.80;;
9934;SDS011;5006;41.828;23.478;2022-12-18T14:39:58;6.97;;;6.28;;
9934;SDS011;5006;41.828;23.478;2022-12-18T14:41:10;7.30;;;6.22;;
9934;SDS011;5006;41.828;23.478;2022-12-18T14:42:16;7.72;;;6.93;;
9934;SDS011;5006;41.828;23.478;2022-12-18T14:43:22;7.38;;;6.60;;
9934;SDS011;5006;41.828;23.478;2022-12-18T14:44:29;6.90;;;6.20;;
9934;SDS011;5006;41.828;23.478;2022-12-18T14:45:35;6.55;;;5.95;;
9934;SDS011;5006;41.828;23.478;2022-12-18T14:46:43;7.28;;;6.57;;
9934;SDS011;5006;41.828;23.478;2022-12-18T14:47:50;6.95;;;6.25;;
9934;SDS011;5006;41.828;23.478;2022-12-18T14:48:55;6.72;;;6.13;;
9934;SDS011;5006;41.828;23.478;2022-12-18T14:50:02;6.93;;;6.22;;
9934;SDS011;5006;41.828;23.478;2022-12-18T14:51:15;7.38;;;6.68;;
9934;SDS011;5006;41.828;23.478;2022-12-18T14:52:28;7.32;;;6.60;;
9934;SDS011;5006;41.828;23.478;2022-12-18T14:53:37;6.82;;;6.18;;
9934;SDS011;5006;41.828;23.478;2022-12-18T14:54:45;7.28;;;6.13;;
9934;SDS011;5006;41.828;23.478;2022-12-18T14:55:52;7.63;;;6.82;;
9934;SDS011;5006;41.828;23.478;2022-12-18T14:56:57;6.30;;;5.68;;
9934;SDS011;5006;41.828;23.478;2022-12-18T14:58:10;6.95;;;6.25;;
9934;SDS011;5006;41.828;23.478;2022-12-18T14:59:20;7.30;;;6.60;;
9934;SDS011;5006;41.828;23.478;2022-12-18T15:00:28;6.57;;;5.97;;
9934;SDS011;5006;41.828;23.478;2022-12-18T15:01:33;6.80;;;6.13;;
9934;SDS011;5006;41.828;23.478;2022-12-18T15:02:41;7.10;;;6.50;;
9934;SDS011;5006;41.828;23.478;2022-12-18T15:03:47;7.25;;;6.55;;
9934;SDS011;5006;41.828;23.478;2022-12-18T15:04:59;6.97;;;6.38;;
9934;SDS011;5006;41.828;23.478;2022-12-18T15:06:16;7.32;;;6.15;;
9934;SDS011;5006;41.828;23.478;2022-12-18T15:07:23;8.13;;;6.60;;
9934;SDS011;5006;41.828;23.478;2022-12-18T15:08:31;6.85;;;6.22;;
9934;SDS011;5006;41.828;23.478;2022-12-18T15:09:42;6.50;;;5.90;;
9934;SDS011;5006;41.828;23.478;2022-12-18T15:10:50;7.18;;;6.32;;
9934;SDS011;5006;41.828;23.478;2022-12-18T15:11:55;7.20;;;6.13;;
9934;SDS011;5006;41.828;23.478;2022-12-18T15:13:06;7.22;;;6.53;;
9934;SDS011;5006;41.828;23.478;2022-12-18T15:14:34;6.90;;;6.20;;
9934;SDS011;5006;41.828;23.478;2022-12-18T15:15:44;7.97;;;6.18;;
9934;SDS011;5006;41.828;23.478;2022-12-18T15:16:52;7.00;;;6.20;;
9934;SDS011;5006;41.828;23.478;2022-12-18T15:18:01;6.95;;;6.25;;
9934;SDS011;5006;41.828;23.478;2022-12-18T15:19:10;7.18;;;6.28;;
9934;SDS011;5006;41.828;23.478;2022-12-18T15:20:15;7.78;;;6.07;;
9934;SDS011;5006;41.828;23.478;2022-12-18T15:21:22;7.15;;;6.45;;
9934;SDS011;5006;41.828;23.478;2022-12-18T15:22:28;6.93;;;6.22;;
9934;SDS011;5006;41.828;23.478;2022-12-18T15:23:37;7.30;;;6.47;;
9934;SDS011;5006;41.828;23.478;2022-12-18T15:24:54;6.60;;;6.00;;
9934;SDS011;5006;41.828;23.478;2022-12-18T15:26:02;6.97;;;6.13;;
9934;SDS011;5006;41.828;23.478;2022-12-18T15:27:19;6.90;;;6.20;;
9934;SDS011;5006;41.828;23.478;2022-12-18T15:28:27;6.80;;;5.78;;
9934;SDS011;5006;41.828;23.478;2022-12-18T15:29:38;6.75;;;5.65;;
9934;SDS011;5006;41.828;23.478;2022-12-18T15:30:57;6.40;;;5.80;;
9934;SDS011;5006;41.828;23.478;2022-12-18T15:32:04;7.45;;;6.18;;
9934;SDS011;5006;41.828;23.478;2022-12-18T15:33:22;6.65;;;5.93;;
9934;SDS011;5006;41.828;23.478;2022-12-18T15:34:28;7.72;;;6.25;;
9934;SDS011;5006;41.828;23.478;2022-12-18T15:35:35;6.50;;;5.90;;
9934;SDS011;5006;41.828;23.478;2022-12-18T15:36:40;8.68;;;6.72;;
9934;SDS011;5006;41.828;23.478;2022-12-18T15:37:46;6.90;;;6.30;;
9934;SDS011;5006;41.828;23.478;2022-12-18T15:38:52;8.13;;;6.20;;
9934;SDS011;5006;41.828;23.478;2022-12-18T15:39:59;7.53;;;6.80;;
9934;SDS011;5006;41.828;23.478;2022-12-18T15:41:08;7.28;;;5.85;;
9934;SDS011;5006;41.828;23.478;2022-12-18T15:42:16;6.72;;;6.10;;
9934;SDS011;5006;41.828;23.478;2022-12-18T15:43:39;6.43;;;5.82;;
9934;SDS011;5006;41.828;23.478;2022-12-18T15:44:45;6.45;;;5.65;;
9934;SDS011;5006;41.828;23.478;2022-12-18T15:45:52;6.95;;;6.25;;
9934;SDS011;5006;41.828;23.478;2022-12-18T15:46:57;7.20;;;5.95;;
9934;SDS011;5006;41.828;23.478;2022-12-18T15:48:06;6.28;;;5.68;;
9934;SDS011;5006;41.828;23.478;2022-12-18T15:49:22;6.65;;;5.97;;
9934;SDS011;5006;41.828;23.478;2022-12-18T15:50:28;6.20;;;5.65;;
9934;SDS011;5006;41.828;23.478;2022-12-18T15:51:34;6.60;;;5.43;;
9934;SDS011;5006;41.828;23.478;2022-12-18T15:52:42;5.70;;;5.20;;
9934;SDS011;5006;41.828;23.478;2022-12-18T15:53:50;5.45;;;4.90;;
9934;SDS011;5006;41.828;23.478;2022-12-18T15:54:59;5.80;;;5.22;;
9934;SDS011;5006;41.828;23.478;2022-12-18T15:56:23;5.97;;;5.38;;
9934;SDS011;5006;41.828;23.478;2022-12-18T15:57:46;5.80;;;5.20;;
9934;SDS011;5006;41.828;23.478;2022-12-18T15:58:51;5.20;;;4.70;;
9934;SDS011;5006;41.828;23.478;2022-12-18T15:59:59;5.30;;;4.85;;
9934;SDS011;5006;41.828;23.478;2022-12-18T16:01:05;6.40;;;5.07;;
9934;SDS011;5006;41.828;23.478;2022-12-18T16:02:14;5.50;;;5.00;;
9934;SDS011;5006;41.828;23.478;2022-12-18T16:03:21;5.53;;;4.85;;
9934;SDS011;5006;41.828;23.478;2022-12-18T16:04:27;6.55;;;4.68;;
9934;SDS011;5006;41.828;23.478;2022-12-18T16:05:32;5.47;;;4.97;;
9934;SDS011;5006;41.828;23.478;2022-12-18T16:06:38;5.28;;;4.60;;
9934;SDS011;5006;41.828;23.478;2022-12-18T16:07:44;5.63;;;4.60;;
9934;SDS011;5006;41.828;23.478;2022-12-18T16:08:49;5.35;;;4.85;;
9934;SDS011;5006;41.828;23.478;2022-12-18T16:09:55;5.30;;;4.80;;
9934;SDS011;5006;41.828;23.478;2022-12-18T16:11:01;5.10;;;4.60;;
9934;SDS011;5006;41.828;23.478;2022-12-18T16:12:09;5.45;;;4.95;;
9934;SDS011;5006;41.828;23.478;2022-12-18T16:13:19;5.47;;;4.97;;
9934;SDS011;5006;41.828;23.478;2022-12-18T16:14:26;5.78;;;4.90;;
9934;SDS011;5006;41.828;23.478;2022-12-18T16:15:33;5.95;;;4.60;;
9934;SDS011;5006;41.828;23.478;2022-12-18T16:16:39;5.30;;;4.80;;
9934;SDS011;5006;41.828;23.478;2022-12-18T16:17:43;5.90;;;4.63;;
9934;SDS011;5006;41.828;23.478;2022-12-18T16:18:49;4.97;;;4.25;;
9934;SDS011;5006;41.828;23.478;2022-12-18T16:19:54;5.43;;;4.45;;
9934;SDS011;5006;41.828;23.478;2022-12-18T16:21:00;4.75;;;4.35;;
9934;SDS011;5006;41.828;23.478;2022-12-18T16:22:04;4.70;;;4.22;;
9934;SDS011;5006;41.828;23.478;2022-12-18T16:23:10;5.13;;;4.63;;
9934;SDS011;5006;41.828;23.478;2022-12-18T16:24:16;5.47;;;4.97;;
9934;SDS011;5006;41.828;23.478;2022-12-18T16:25:23;6.35;;;5.50;;
9934;SDS011;5006;41.828;23.478;2022-12-18T16:26:30;6.93;;;5.00;;
9934;SDS011;5006;41.828;23.478;2022-12-18T16:27:34;6.28;;;5.30;;
9934;SDS011;5006;41.828;23.478;2022-12-18T16:28:40;5.32;;;4.72;;
9934;SDS011;5006;41.828;23.478;2022-12-18T16:29:45;6.45;;;4.53;;
9934;SDS011;5006;41.828;23.478;2022-12-18T16:30:52;5.25;;;4.60;;
9934;SDS011;5006;41.828;23.478;2022-12-18T16:31:58;5.93;;;4.20;;
9934;SDS011;5006;41.828;23.478;2022-12-18T16:33:04;5.00;;;4.55;;
9934;SDS011;5006;41.828;23.478;2022-12-18T16:34:11;5.38;;;4.07;;
9934;SDS011;5006;41.828;23.478;2022-12-18T16:35:17;4.93;;;4.43;;
9934;SDS011;5006;41.828;23.478;2022-12-18T16:36:23;6.43;;;4.45;;
9934;SDS011;5006;41.828;23.478;2022-12-18T16:37:27;4.70;;;4.20;;
9934;SDS011;5006;41.828;23.478;2022-12-18T16:38:34;4.65;;;4.15;;
9934;SDS011;5006;41.828;23.478;2022-12-18T16:39:40;6.95;;;4.60;;
9934;SDS011;5006;41.828;23.478;2022-12-18T16:40:45;4.65;;;4.20;;
9934;SDS011;5006;41.828;23.478;2022-12-18T16:42:06;4.75;;;4.25;;
9934;SDS011;5006;41.828;23.478;2022-12-18T16:43:18;6.20;;;5.10;;
9934;SDS011;5006;41.828;23.478;2022-12-18T16:44:23;6.50;;;5.57;;
9934;SDS011;5006;41.828;23.478;2022-12-18T16:45:28;5.07;;;4.57;;
9934;SDS011;5006;41.828;23.478;2022-12-18T16:46:38;5.85;;;4.68;;
9934;SDS011;5006;41.828;23.478;2022-12-18T16:47:43;5.70;;;5.10;;
9934;SDS011;5006;41.828;23.478;2022-12-18T16:48:49;9.27;;;6.50;;
9934;SDS011;5006;41.828;23.478;2022-12-18T16:49:54;11.30;;;8.75;;
9934;SDS011;5006;41.828;23.478;2022-12-18T16:51:00;12.00;;;8.95;;
9934;SDS011;5006;41.828;23.478;2022-12-18T16:52:06;10.38;;;7.47;;
9934;SDS011;5006;41.828;23.478;2022-12-18T16:53:12;8.82;;;6.88;;
9934;SDS011;5006;41.828;23.478;2022-12-18T16:54:17;8.40;;;6.60;;
9934;SDS011;5006;41.828;23.478;2022-12-18T16:55:23;7.75;;;6.40;;
9934;SDS011;5006;41.828;23.478;2022-12-18T16:56:29;6.40;;;5.43;;
9934;SDS011;5006;41.828;23.478;2022-12-18T16:57:34;7.57;;;5.70;;
9934;SDS011;5006;41.828;23.478;2022-12-18T16:58:40;6.53;;;5.80;;
9934;SDS011;5006;41.828;23.478;2022-12-18T16:59:45;7.65;;;6.45;;
9934;SDS011;5006;41.828;23.478;2022-12-18T17:00:50;11.30;;;8.85;;
9934;SDS011;5006;41.828;23.478;2022-12-18T17:01:57;9.10;;;7.95;;
9934;SDS011;5006;41.828;23.478;2022-12-18T17:03:02;9.13;;;7.60;;
9934;SDS011;5006;41.828;23.478;2022-12-18T17:04:08;9.82;;;6.60;;
9934;SDS011;5006;41.828;23.478;2022-12-18T17:05:13;6.72;;;5.80;;
9934;SDS011;5006;41.828;23.478;2022-12-18T17:06:19;7.20;;;6.50;;
9934;SDS011;5006;41.828;23.478;2022-12-18T17:07:24;6.88;;;6.18;;
9934;SDS011;5006;41.828;23.478;2022-12-18T17:08:31;5.78;;;5.07;;
9934;SDS011;5006;41.828;23.478;2022-12-18T17:09:36;6.60;;;5.78;;
9934;SDS011;5006;41.828;23.478;2022-12-18T17:10:42;4.78;;;4.28;;
9934;SDS011;5006;41.828;23.478;2022-12-18T17:11:48;4.90;;;4.45;;
9934;SDS011;5006;41.828;23.478;2022-12-18T17:12:54;5.38;;;4.80;;
9934;SDS011;5006;41.828;23.478;2022-12-18T17:14:04;4.90;;;4.40;;
9934;SDS011;5006;41.828;23.478;2022-12-18T17:15:12;6.20;;;4.10;;
9934;SDS011;5006;41.828;23.478;2022-12-18T17:16:18;4.88;;;4.43;;
9934;SDS011;5006;41.828;23.478;2022-12-18T17:17:24;6.25;;;4.30;;
9934;SDS011;5006;41.828;23.478;2022-12-18T17:18:30;5.38;;;4.88;;
9934;SDS011;5006;41.828;23.478;2022-12-18T17:19:34;5.35;;;4.70;;
9934;SDS011;5006;41.828;23.478;2022-12-18T17:20:40;4.90;;;4.40;;
9934;SDS011;5006;41.828;23.478;2022-12-18T17:21:46;5.18;;;4.68;;
9934;SDS011;5006;41.828;23.478;2022-12-18T17:22:53;5.18;;;4.68;;
9934;SDS011;5006;41.828;23.478;2022-12-18T17:23:58;5.45;;;4.88;;
9934;SDS011;5006;41.828;23.478;2022-12-18T17:25:04;6.53;;;5.45;;
9934;SDS011;5006;41.828;23.478;2022-12-18T17:26:10;7.15;;;6.32;;
9934;SDS011;5006;41.828;23.478;2022-12-18T17:27:16;7.35;;;6.45;;
9934;SDS011;5006;41.828;23.478;2022-12-18T17:28:22;8.07;;;7.28;;
9934;SDS011;5006;41.828;23.478;2022-12-18T17:29:29;8.98;;;7.60;;
9934;SDS011;5006;41.828;23.478;2022-12-18T17:30:34;8.88;;;7.93;;
9934;SDS011;5006;41.828;23.478;2022-12-18T17:31:39;8.90;;;7.80;;
9934;SDS011;5006;41.828;23.478;2022-12-18T17:32:46;9.30;;;8.27;;
9934;SDS011;5006;41.828;23.478;2022-12-18T17:33:50;9.65;;;8.40;;
9934;SDS011;5006;41.828;23.478;2022-12-18T17:34:56;8.90;;;8.00;;
9934;SDS011;5006;41.828;23.478;2022-12-18T17:36:02;10.23;;;8.95;;
9934;SDS011;5006;41.828;23.478;2022-12-18T17:37:07;9.65;;;8.63;;
9934;SDS011;5006;41.828;23.478;2022-12-18T17:38:15;11.48;;;8.95;;
9934;SDS011;5006;41.828;23.478;2022-12-18T17:39:20;8.93;;;8.02;;
9934;SDS011;5006;41.828;23.478;2022-12-18T17:40:26;9.52;;;8.52;;
9934;SDS011;5006;41.828;23.478;2022-12-18T17:41:31;9.57;;;8.68;;
9934;SDS011;5006;41.828;23.478;2022-12-18T17:42:38;9.13;;;7.60;;
9934;SDS011;5006;41.828;23.478;2022-12-18T17:43:44;8.43;;;7.57;;
9934;SDS011;5006;41.828;23.478;2022-12-18T17:44:54;8.65;;;7.82;;
9934;SDS011;5006;41.828;23.478;2022-12-18T17:46:00;7.53;;;6.75;;
9934;SDS011;5006;41.828;23.478;2022-12-18T17:47:05;7.78;;;6.97;;
9934;SDS011;5006;41.828;23.478;2022-12-18T17:48:14;7.88;;;7.07;;
9934;SDS011;5006;41.828;23.478;2022-12-18T17:49:20;8.15;;;6.72;;
9934;SDS011;5006;41.828;23.478;2022-12-18T17:50:25;6.97;;;6.35;;
9934;SDS011;5006;41.828;23.478;2022-12-18T17:51:30;8.50;;;6.35;;
9934;SDS011;5006;41.828;23.478;2022-12-18T17:52:35;6.57;;;5.97;;
9934;SDS011;5006;41.828;23.478;2022-12-18T17:53:41;6.93;;;5.70;;
9934;SDS011;5006;41.828;23.478;2022-12-18T17:54:46;8.13;;;6.35;;
9934;SDS011;5006;41.828;23.478;2022-12-18T17:55:52;9.32;;;6.50;;
9934;SDS011;5006;41.828;23.478;2022-12-18T17:56:58;6.90;;;6.00;;
9934;SDS011;5006;41.828;23.478;2022-12-18T17:58:04;6.85;;;6.25;;
9934;SDS011;5006;41.828;23.478;2022-12-18T17:59:09;7.85;;;6.15;;
9934;SDS011;5006;41.828;23.478;2022-12-18T18:00:15;8.10;;;6.53;;
9934;SDS011;5006;41.828;23.478;2022-12-18T18:01:21;7.25;;;6.55;;
9934;SDS011;5006;41.828;23.478;2022-12-18T18:02:28;11.85;;;6.85;;
9934;SDS011;5006;41.828;23.478;2022-12-18T18:03:35;7.20;;;6.60;;
9934;SDS011;5006;41.828;23.478;2022-12-18T18:04:40;8.07;;;6.95;;
9934;SDS011;5006;41.828;23.478;2022-12-18T18:05:46;7.53;;;6.82;;
9934;SDS011;5006;41.828;23.478;2022-12-18T18:06:51;7.50;;;6.80;;
9934;SDS011;5006;41.828;23.478;2022-12-18T18:07:57;6.72;;;6.13;;
9934;SDS011;5006;41.828;23.478;2022-12-18T18:09:01;7.63;;;5.90;;
9934;SDS011;5006;41.828;23.478;2022-12-18T18:10:07;6.93;;;5.50;;
9934;SDS011;5006;41.828;23.478;2022-12-18T18:11:14;6.63;;;5.82;;
9934;SDS011;5006;41.828;23.478;2022-12-18T18:12:40;5.50;;;4.95;;
9934;SDS011;5006;41.828;23.478;2022-12-18T18:14:03;6.00;;;5.40;;
9934;SDS011;5006;41.828;23.478;2022-12-18T18:15:10;5.85;;;5.30;;
9934;SDS011;5006;41.828;23.478;2022-12-18T18:16:16;6.45;;;5.60;;
9934;SDS011;5006;41.828;23.478;2022-12-18T18:17:22;6.18;;;5.22;;
9934;SDS011;5006;41.828;23.478;2022-12-18T18:18:27;5.75;;;5.15;;
9934;SDS011;5006;41.828;23.478;2022-12-18T18:19:33;6.22;;;5.63;;
9934;SDS011;5006;41.828;23.478;2022-12-18T18:20:39;5.55;;;5.05;;
9934;SDS011;5006;41.828;23.478;2022-12-18T18:21:44;5.45;;;4.95;;
9934;SDS011;5006;41.828;23.478;2022-12-18T18:22:51;5.32;;;4.82;;
9934;SDS011;5006;41.828;23.478;2022-12-18T18:23:58;5.28;;;4.78;;
9934;SDS011;5006;41.828;23.478;2022-12-18T18:25:04;5.28;;;4.78;;
9934;SDS011;5006;41.828;23.478;2022-12-18T18:26:10;4.90;;;4.50;;
9934;SDS011;5006;41.828;23.478;2022-12-18T18:27:15;4.70;;;4.30;;
9934;SDS011;5006;41.828;23.478;2022-12-18T18:28:21;4.90;;;4.50;;
9934;SDS011;5006;41.828;23.478;2022-12-18T18:29:26;5.25;;;4.30;;
9934;SDS011;5006;41.828;23.478;2022-12-18T18:30:35;5.10;;;4.60;;
9934;SDS011;5006;41.828;23.478;2022-12-18T18:31:40;5.00;;;4.18;;
9934;SDS011;5006;41.828;23.478;2022-12-18T18:32:46;4.43;;;4.03;;
9934;SDS011;5006;41.828;23.478;2022-12-18T18:33:50;4.88;;;4.18;;
9934;SDS011;5006;41.828;23.478;2022-12-18T18:34:59;4.60;;;4.10;;
9934;SDS011;5006;41.828;23.478;2022-12-18T18:36:08;8.90;;;7.28;;
9934;SDS011;5006;41.828;23.478;2022-12-18T18:37:14;6.53;;;5.82;;
9934;SDS011;5006;41.828;23.478;2022-12-18T18:38:20;5.32;;;4.15;;
9934;SDS011;5006;41.828;23.478;2022-12-18T18:39:26;4.95;;;4.10;;
9934;SDS011;5006;41.828;23.478;2022-12-18T18:40:32;3.88;;;3.53;;
9934;SDS011;5006;41.828;23.478;2022-12-18T18:41:38;4.30;;;3.90;;
9934;SDS011;5006;41.828;23.478;2022-12-18T18:42:44;3.60;;;3.30;;
9934;SDS011;5006;41.828;23.478;2022-12-18T18:43:52;3.78;;;3.47;;
9934;SDS011;5006;41.828;23.478;2022-12-18T18:44:59;3.95;;;3.55;;
9934;SDS011;5006;41.828;23.478;2022-12-18T18:46:04;3.50;;;3.20;;
9934;SDS011;5006;41.828;23.478;2022-12-18T18:47:09;3.90;;;3.50;;
9934;SDS011;5006;41.828;23.478;2022-12-18T18:48:15;3.80;;;3.42;;
9934;SDS011;5006;41.828;23.478;2022-12-18T18:49:21;3.55;;;3.25;;
9934;SDS011;5006;41.828;23.478;2022-12-18T18:50:31;4.32;;;3.85;;
9934;SDS011;5006;41.828;23.478;2022-12-18T18:51:36;3.78;;;3.47;;
9934;SDS011;5006;41.828;23.478;2022-12-18T18:52:42;3.65;;;3.35;;
9934;SDS011;5006;41.828;23.478;2022-12-18T18:53:46;4.55;;;4.00;;
9934;SDS011;5006;41.828;23.478;2022-12-18T18:54:53;3.75;;;3.45;;
9934;SDS011;5006;41.828;23.478;2022-12-18T18:55:58;3.75;;;3.45;;
9934;SDS011;5006;41.828;23.478;2022-12-18T18:57:03;3.72;;;3.42;;
9934;SDS011;5006;41.828;23.478;2022-12-18T18:58:09;4.00;;;3.60;;
9934;SDS011;5006;41.828;23.478;2022-12-18T18:59:14;3.83;;;3.53;;
9934;SDS011;5006;41.828;23.478;2022-12-18T19:00:20;4.07;;;3.67;;
9934;SDS011;5006;41.828;23.478;2022-12-18T19:01:24;4.90;;;3.55;;
9934;SDS011;5006;41.828;23.478;2022-12-18T19:02:30;4.00;;;3.70;;
9934;SDS011;5006;41.828;23.478;2022-12-18T19:03:36;3.95;;;3.55;;
9934;SDS011;5006;41.828;23.478;2022-12-18T19:04:42;4.03;;;3.63;;
9934;SDS011;5006;41.828;23.478;2022-12-18T19:05:50;3.50;;;3.20;;
9934;SDS011;5006;41.828;23.478;2022-12-18T19:06:55;4.05;;;3.65;;
9934;SDS011;5006;41.828;23.478;2022-12-18T19:08:01;4.10;;;3.70;;
9934;SDS011;5006;41.828;23.478;2022-12-18T19:09:07;5.15;;;4.68;;
9934;SDS011;5006;41.828;23.478;2022-12-18T19:10:14;5.43;;;4.55;;
9934;SDS011;5006;41.828;23.478;2022-12-18T19:11:20;4.70;;;4.30;;
9934;SDS011;5006;41.828;23.478;2022-12-18T19:12:45;4.20;;;3.80;;
9934;SDS011;5006;41.828;23.478;2022-12-18T19:14:08;4.40;;;3.80;;
9934;SDS011;5006;41.828;23.478;2022-12-18T19:15:15;4.43;;;4.03;;
9934;SDS011;5006;41.828;23.478;2022-12-18T19:16:20;3.80;;;3.50;;
9934;SDS011;5006;41.828;23.478;2022-12-18T19:17:27;4.13;;;3.78;;
9934;SDS011;5006;41.828;23.478;2022-12-18T19:18:34;4.97;;;3.90;;
9934;SDS011;5006;41.828;23.478;2022-12-18T19:19:41;4.13;;;3.70;;
9934;SDS011;5006;41.828;23.478;2022-12-18T19:20:54;4.05;;;3.70;;
9934;SDS011;5006;41.828;23.478;2022-12-18T19:22:01;4.28;;;3.55;;
9934;SDS011;5006;41.828;23.478;2022-12-18T19:23:08;3.83;;;3.33;;
9934;SDS011;5006;41.828;23.478;2022-12-18T19:24:13;4.05;;;3.72;;
9934;SDS011;5006;41.828;23.478;2022-12-18T19:25:18;4.35;;;3.90;;
9934;SDS011;5006;41.828;23.478;2022-12-18T19:26:23;4.18;;;3.72;;
9934;SDS011;5006;41.828;23.478;2022-12-18T19:27:29;4.07;;;3.67;;
9934;SDS011;5006;41.828;23.478;2022-12-18T19:28:34;5.43;;;3.95;;
9934;SDS011;5006;41.828;23.478;2022-12-18T19:29:40;4.07;;;3.67;;
9934;SDS011;5006;41.828;23.478;2022-12-18T19:30:46;4.68;;;4.20;;
9934;SDS011;5006;41.828;23.478;2022-12-18T19:31:51;4.03;;;3.63;;
9934;SDS011;5006;41.828;23.478;2022-12-18T19:32:56;5.18;;;4.10;;
9934;SDS011;5006;41.828;23.478;2022-12-18T19:34:01;4.22;;;3.80;;
9934;SDS011;5006;41.828;23.478;2022-12-18T19:35:08;4.03;;;3.63;;
9934;SDS011;5006;41.828;23.478;2022-12-18T19:36:17;4.20;;;3.78;;
9934;SDS011;5006;41.828;23.478;2022-12-18T19:37:24;3.85;;;3.55;;
9934;SDS011;5006;41.828;23.478;2022-12-18T19:38:30;4.05;;;3.65;;
9934;SDS011;5006;41.828;23.478;2022-12-18T19:39:35;3.92;;;3.53;;
9934;SDS011;5006;41.828;23.478;2022-12-18T19:40:41;3.97;;;3.58;;
9934;SDS011;5006;41.828;23.478;2022-12-18T19:41:46;4.18;;;3.78;;
9934;SDS011;5006;41.828;23.478;2022-12-18T19:42:52;4.03;;;3.55;;
9934;SDS011;5006;41.828;23.478;2022-12-18T19:43:57;4.82;;;4.10;;
9934;SDS011;5006;41.828;23.478;2022-12-18T19:45:03;4.65;;;4.15;;
9934;SDS011;5006;41.828;23.478;2022-12-18T19:46:10;4.07;;;3.67;;
9934;SDS011;5006;41.828;23.478;2022-12-18T19:47:18;4.40;;;4.00;;
9934;SDS011;5006;41.828;23.478;2022-12-18T19:48:24;4.10;;;3.38;;
9934;SDS011;5006;41.828;23.478;2022-12-18T19:49:29;5.88;;;4.13;;
9934;SDS011;5006;41.828;23.478;2022-12-18T19:50:38;3.90;;;3.13;;
9934;SDS011;5006;41.828;23.478;2022-12-18T19:51:47;3.85;;;2.90;;
9934;SDS011;5006;41.828;23.478;2022-12-18T19:52:53;5.75;;;3.53;;
9934;SDS011;5006;41.828;23.478;2022-12-18T19:53:58;3.47;;;3.17;;
9934;SDS011;5006;41.828;23.478;2022-12-18T19:55:04;4.53;;;3.40;;
9934;SDS011;5006;41.828;23.478;2022-12-18T19:56:11;3.83;;;3.42;;
9934;SDS011;5006;41.828;23.478;2022-12-18T19:57:19;4.95;;;3.60;;
9934;SDS011;5006;41.828;23.478;2022-12-18T19:58:24;3.85;;;3.08;;
9934;SDS011;5006;41.828;23.478;2022-12-18T19:59:30;3.30;;;3.00;;
9934;SDS011;5006;41.828;23.478;2022-12-18T20:00:36;5.03;;;3.38;;
9934;SDS011;5006;41.828;23.478;2022-12-18T20:01:40;3.90;;;3.45;;